N321FK KACK-KOQU
Flight info
| Callsign | N321FK |
|---|---|
| Flight time | 0h 28m |
| Altitude | VFR/065 |
| Route | |
| Aircraft | SR22/L-VGD/C |
Departure
| Time | 2026-05-04 23:22 |
|---|---|
| Airport | Nantucket Memorial Airport (KACK) |
Arrival
| Time | 2026-05-04 23:51 |
|---|---|
| Airport | Quonset State Airport (KOQU) |
| Time | Latitude | Longitude | Altitude | Speed | Heading |
|---|---|---|---|---|---|
| 2026-05-04 23:15 | 41.25638 | -70.06314 | 40 ft | 0 kts | 45° |
| 2026-05-04 23:18 | 41.25639 | -70.06314 | 40 ft | 1 kts | 45° |
| 2026-05-04 23:18 | 41.25635 | -70.06306 | 40 ft | 0 kts | 133° |
| 2026-05-04 23:19 | 41.25634 | -70.06274 | 40 ft | 11 kts | 45° |
| 2026-05-04 23:19 | 41.25733 | -70.06143 | 42 ft | 22 kts | 47° |
| 2026-05-04 23:20 | 41.25839 | -70.06004 | 43 ft | 21 kts | 45° |
| 2026-05-04 23:20 | 41.25933 | -70.05877 | 45 ft | 16 kts | 46° |
| 2026-05-04 23:20 | 41.25928 | -70.05823 | 46 ft | 5 kts | 68° |
| 2026-05-04 23:20 | 41.25977 | -70.05750 | 47 ft | 13 kts | 52° |
| 2026-05-04 23:21 | 41.25958 | -70.05699 | 47 ft | 3 kts | 150° |
| 2026-05-04 23:21 | 41.25902 | -70.05675 | 46 ft | 15 kts | 189° |
| 2026-05-04 23:21 | 41.25732 | -70.05846 | 43 ft | 58 kts | 225° |
| 2026-05-04 23:21 | 41.25356 | -70.06405 | 122 ft | 97 kts | 228° |
| 2026-05-04 23:22 | 41.24741 | -70.06870 | 374 ft | 109 kts | 201° |
| 2026-05-04 23:22 | 41.24117 | -70.07429 | 641 ft | 113 kts | 238° |
| 2026-05-04 23:22 | 41.23971 | -70.08469 | 912 ft | 121 kts | 262° |
| 2026-05-04 23:22 | 41.24007 | -70.09598 | 1168 ft | 124 kts | 266° |
| 2026-05-04 23:23 | 41.24422 | -70.10679 | 1426 ft | 140 kts | 297° |
| 2026-05-04 23:23 | 41.25099 | -70.11628 | 1682 ft | 141 kts | 301° |
| 2026-05-04 23:23 | 41.25791 | -70.12551 | 1930 ft | 141 kts | 301° |
| 2026-05-04 23:23 | 41.26505 | -70.13518 | 2009 ft | 149 kts | 301° |
| 2026-05-04 23:24 | 41.27211 | -70.14495 | 2001 ft | 147 kts | 302° |
| 2026-05-04 23:24 | 41.27786 | -70.15548 | 2001 ft | 134 kts | 281° |
| 2026-05-04 23:24 | 41.28107 | -70.16702 | 2005 ft | 132 kts | 278° |
| 2026-05-04 23:24 | 41.28409 | -70.17853 | 2000 ft | 131 kts | 279° |
| 2026-05-04 23:25 | 41.28706 | -70.18995 | 2005 ft | 131 kts | 278° |
| 2026-05-04 23:25 | 41.29004 | -70.20133 | 2004 ft | 131 kts | 279° |
| 2026-05-04 23:25 | 41.29302 | -70.21280 | 2004 ft | 131 kts | 279° |
| 2026-05-04 23:25 | 41.29601 | -70.22426 | 2004 ft | 131 kts | 279° |
| 2026-05-04 23:26 | 41.29897 | -70.23573 | 2007 ft | 134 kts | 278° |
| 2026-05-04 23:26 | 41.30207 | -70.24766 | 2007 ft | 137 kts | 279° |
| 2026-05-04 23:26 | 41.30521 | -70.25977 | 2006 ft | 140 kts | 279° |
| 2026-05-04 23:26 | 41.30840 | -70.27193 | 2002 ft | 141 kts | 279° |
| 2026-05-04 23:27 | 41.31160 | -70.28426 | 2002 ft | 141 kts | 279° |
| 2026-05-04 23:27 | 41.31484 | -70.29677 | 2001 ft | 142 kts | 279° |
| 2026-05-04 23:27 | 41.31805 | -70.30915 | 2002 ft | 143 kts | 279° |
| 2026-05-04 23:27 | 41.32132 | -70.32169 | 1998 ft | 143 kts | 279° |
| 2026-05-04 23:28 | 41.32458 | -70.33432 | 1999 ft | 143 kts | 279° |
| 2026-05-04 23:28 | 41.32786 | -70.34686 | 1995 ft | 143 kts | 279° |
| 2026-05-04 23:28 | 41.33114 | -70.35959 | 1991 ft | 143 kts | 279° |
| 2026-05-04 23:28 | 41.33443 | -70.37234 | 1989 ft | 143 kts | 279° |
| 2026-05-04 23:29 | 41.33770 | -70.38495 | 1988 ft | 143 kts | 279° |
| 2026-05-04 23:29 | 41.34103 | -70.39785 | 1992 ft | 143 kts | 279° |
| 2026-05-04 23:29 | 41.34434 | -70.41060 | 1990 ft | 143 kts | 280° |
| 2026-05-04 23:29 | 41.34757 | -70.42316 | 1993 ft | 142 kts | 280° |
| 2026-05-04 23:30 | 41.35081 | -70.43573 | 1991 ft | 142 kts | 280° |
| 2026-05-04 23:30 | 41.35405 | -70.44822 | 1991 ft | 142 kts | 280° |
| 2026-05-04 23:30 | 41.35723 | -70.46059 | 1995 ft | 142 kts | 280° |
| 2026-05-04 23:30 | 41.36048 | -70.47321 | 1999 ft | 142 kts | 279° |
| 2026-05-04 23:31 | 41.36368 | -70.48564 | 1998 ft | 143 kts | 279° |
| 2026-05-04 23:31 | 41.36694 | -70.49828 | 1994 ft | 143 kts | 279° |
| 2026-05-04 23:31 | 41.37016 | -70.51082 | 1989 ft | 143 kts | 279° |
| 2026-05-04 23:31 | 41.37336 | -70.52331 | 1995 ft | 144 kts | 279° |
| 2026-05-04 23:32 | 41.37664 | -70.53599 | 1992 ft | 144 kts | 279° |
| 2026-05-04 23:32 | 41.37989 | -70.54866 | 1992 ft | 144 kts | 279° |
| 2026-05-04 23:32 | 41.38309 | -70.56119 | 1992 ft | 144 kts | 279° |
| 2026-05-04 23:32 | 41.38633 | -70.57389 | 1997 ft | 144 kts | 279° |
| 2026-05-04 23:33 | 41.38956 | -70.58649 | 2000 ft | 144 kts | 279° |
| 2026-05-04 23:33 | 41.39279 | -70.59908 | 1995 ft | 144 kts | 279° |
| 2026-05-04 23:33 | 41.39618 | -70.61172 | 1992 ft | 146 kts | 283° |
| 2026-05-04 23:33 | 41.40089 | -70.62400 | 1992 ft | 148 kts | 288° |
| 2026-05-04 23:34 | 41.40581 | -70.63605 | 1997 ft | 148 kts | 288° |
| 2026-05-04 23:34 | 41.41069 | -70.64800 | 1997 ft | 148 kts | 288° |
| 2026-05-04 23:34 | 41.41557 | -70.66002 | 1998 ft | 148 kts | 288° |
| 2026-05-04 23:34 | 41.42054 | -70.67217 | 2004 ft | 148 kts | 288° |
| 2026-05-04 23:35 | 41.42545 | -70.68421 | 1999 ft | 149 kts | 288° |
| 2026-05-04 23:35 | 41.43039 | -70.69634 | 1998 ft | 149 kts | 288° |
| 2026-05-04 23:35 | 41.43538 | -70.70856 | 1995 ft | 150 kts | 288° |
| 2026-05-04 23:35 | 41.44030 | -70.72067 | 1992 ft | 149 kts | 287° |
| 2026-05-04 23:36 | 41.44527 | -70.73286 | 1995 ft | 149 kts | 287° |
| 2026-05-04 23:36 | 41.45022 | -70.74503 | 1997 ft | 149 kts | 287° |
| 2026-05-04 23:36 | 41.45512 | -70.75713 | 1994 ft | 149 kts | 288° |
| 2026-05-04 23:36 | 41.46004 | -70.76932 | 1990 ft | 149 kts | 288° |
| 2026-05-04 23:37 | 41.46496 | -70.78149 | 1991 ft | 149 kts | 288° |
| 2026-05-04 23:37 | 41.46989 | -70.79369 | 1994 ft | 150 kts | 287° |
| 2026-05-04 23:37 | 41.47477 | -70.80589 | 1988 ft | 150 kts | 287° |
| 2026-05-04 23:37 | 41.47975 | -70.81827 | 1988 ft | 150 kts | 288° |
| 2026-05-04 23:38 | 41.48465 | -70.83038 | 1995 ft | 149 kts | 288° |
| 2026-05-04 23:38 | 41.48956 | -70.84251 | 1993 ft | 149 kts | 287° |
| 2026-05-04 23:38 | 41.49451 | -70.85480 | 1990 ft | 149 kts | 288° |
| 2026-05-04 23:38 | 41.49940 | -70.86694 | 1987 ft | 149 kts | 288° |
| 2026-05-04 23:39 | 41.50440 | -70.87929 | 1987 ft | 150 kts | 288° |
| 2026-05-04 23:39 | 41.50930 | -70.89146 | 1986 ft | 150 kts | 287° |
| 2026-05-04 23:39 | 41.51426 | -70.90374 | 1987 ft | 150 kts | 288° |
| 2026-05-04 23:39 | 41.51854 | -70.91608 | 1979 ft | 142 kts | 273° |
| 2026-05-04 23:40 | 41.51819 | -70.92870 | 1988 ft | 135 kts | 255° |
| 2026-05-04 23:40 | 41.51616 | -70.94093 | 1982 ft | 135 kts | 252° |
| 2026-05-04 23:40 | 41.51388 | -70.95329 | 1981 ft | 136 kts | 251° |
| 2026-05-04 23:40 | 41.51162 | -70.96543 | 1980 ft | 136 kts | 251° |
| 2026-05-04 23:41 | 41.50937 | -70.97775 | 1973 ft | 136 kts | 251° |
| 2026-05-04 23:41 | 41.50714 | -70.99002 | 1974 ft | 136 kts | 251° |
| 2026-05-04 23:41 | 41.50490 | -71.00233 | 1972 ft | 136 kts | 251° |
| 2026-05-04 23:41 | 41.50261 | -71.01467 | 1976 ft | 136 kts | 251° |
| 2026-05-04 23:42 | 41.50032 | -71.02693 | 1975 ft | 136 kts | 251° |
| 2026-05-04 23:42 | 41.49807 | -71.03908 | 1972 ft | 136 kts | 252° |
| 2026-05-04 23:42 | 41.49578 | -71.05128 | 1982 ft | 136 kts | 252° |
| 2026-05-04 23:42 | 41.49346 | -71.06368 | 1980 ft | 136 kts | 252° |
| 2026-05-04 23:43 | 41.49120 | -71.07584 | 1973 ft | 136 kts | 252° |
| 2026-05-04 23:43 | 41.48889 | -71.08810 | 1983 ft | 136 kts | 252° |
| 2026-05-04 23:43 | 41.48654 | -71.10030 | 1981 ft | 136 kts | 252° |
| 2026-05-04 23:43 | 41.48418 | -71.11252 | 1982 ft | 136 kts | 251° |
| 2026-05-04 23:44 | 41.48185 | -71.12476 | 1983 ft | 136 kts | 252° |
| 2026-05-04 23:44 | 41.47953 | -71.13690 | 1980 ft | 137 kts | 252° |
| 2026-05-04 23:44 | 41.47719 | -71.14915 | 1979 ft | 137 kts | 251° |
| 2026-05-04 23:44 | 41.47552 | -71.16181 | 1977 ft | 141 kts | 264° |
| 2026-05-04 23:45 | 41.47657 | -71.17488 | 1974 ft | 143 kts | 270° |
| 2026-05-04 23:45 | 41.47804 | -71.18787 | 1969 ft | 144 kts | 271° |
| 2026-05-04 23:45 | 41.47961 | -71.20123 | 1966 ft | 144 kts | 271° |
| 2026-05-04 23:45 | 41.48113 | -71.21427 | 1968 ft | 144 kts | 270° |
| 2026-05-04 23:46 | 41.48267 | -71.22757 | 1965 ft | 144 kts | 271° |
| 2026-05-04 23:46 | 41.48419 | -71.24079 | 1969 ft | 144 kts | 271° |
| 2026-05-04 23:46 | 41.48574 | -71.25401 | 1967 ft | 144 kts | 271° |
| 2026-05-04 23:46 | 41.48724 | -71.26713 | 1968 ft | 143 kts | 271° |
| 2026-05-04 23:47 | 41.48872 | -71.28019 | 1965 ft | 143 kts | 271° |
| 2026-05-04 23:47 | 41.49020 | -71.29334 | 1971 ft | 143 kts | 270° |
| 2026-05-04 23:47 | 41.49167 | -71.30655 | 1960 ft | 144 kts | 271° |
| 2026-05-04 23:47 | 41.49621 | -71.31879 | 1963 ft | 162 kts | 307° |
| 2026-05-04 23:48 | 41.50645 | -71.32634 | 1973 ft | 171 kts | 326° |
| 2026-05-04 23:48 | 41.51754 | -71.33275 | 1966 ft | 172 kts | 327° |
| 2026-05-04 23:48 | 41.52854 | -71.33901 | 1956 ft | 167 kts | 327° |
| 2026-05-04 23:48 | 41.53914 | -71.34499 | 1603 ft | 168 kts | 327° |
| 2026-05-04 23:49 | 41.54853 | -71.35253 | 1425 ft | 147 kts | 308° |
| 2026-05-04 23:49 | 41.55401 | -71.36322 | 1136 ft | 139 kts | 292° |
| 2026-05-04 23:49 | 41.55986 | -71.37354 | 927 ft | 139 kts | 306° |
| 2026-05-04 23:49 | 41.56735 | -71.38162 | 675 ft | 134 kts | 315° |
| 2026-05-04 23:50 | 41.57411 | -71.38892 | 436 ft | 117 kts | 310° |
| 2026-05-04 23:50 | 41.58049 | -71.39536 | 231 ft | 121 kts | 310° |
| 2026-05-04 23:50 | 41.58753 | -71.40270 | 135 ft | 119 kts | 315° |
| 2026-05-04 23:50 | 41.59341 | -71.40817 | 36 ft | 90 kts | 321° |
| 2026-05-04 23:51 | 41.59719 | -71.41202 | 28 ft | 52 kts | 310° |
| 2026-05-04 23:51 | 41.59936 | -71.41417 | 28 ft | 37 kts | 324° |
| 2026-05-04 23:51 | 41.60032 | -71.41595 | 29 ft | 16 kts | 218° |
| 2026-05-04 23:51 | 41.60018 | -71.41608 | 29 ft | 0 kts | 207° |
| 2026-05-04 23:53 | 41.60011 | -71.41614 | 29 ft | 6 kts | 225° |
| 2026-05-04 23:53 | 41.59952 | -71.41692 | 30 ft | 12 kts | 167° |
| 2026-05-04 23:53 | 41.59954 | -71.41654 | 29 ft | 0 kts | 49° |